sensor_id;sensor_type;location;lat;lon;timestamp;temperature;humidity
24992;DHT22;13014;48.356;10.884;2022-09-01T00:00:30;15.90;99.90
24992;DHT22;13014;48.356;10.884;2022-09-01T00:01:02;16.00;99.90
24992;DHT22;13014;48.356;10.884;2022-09-01T00:01:32;16.00;99.90
24992;DHT22;13014;48.356;10.884;2022-09-01T00:02:04;16.00;99.90
24992;DHT22;13014;48.356;10.884;2022-09-01T00:02:37;16.00;99.90
24992;DHT22;13014;48.356;10.884;2022-09-01T00:03:08;16.00;99.90
24992;DHT22;13014;48.356;10.884;2022-09-01T00:03:40;16.00;99.90
24992;DHT22;13014;48.356;10.884;2022-09-01T00:04:12;16.00;99.90
24992;DHT22;13014;48.356;10.884;2022-09-01T00:04:45;16.00;99.90
24992;DHT22;13014;48.356;10.884;2022-09-01T00:05:16;16.00;99.90
24992;DHT22;13014;48.356;10.884;2022-09-01T00:05:48;16.00;99.90
24992;DHT22;13014;48.356;10.884;2022-09-01T00:06:24;16.00;99.90
24992;DHT22;13014;48.356;10.884;2022-09-01T00:06:55;16.00;99.90
24992;DHT22;13014;48.356;10.884;2022-09-01T00:07:26;16.00;99.90
24992;DHT22;13014;48.356;10.884;2022-09-01T00:07:59;16.00;99.90
24992;DHT22;13014;48.356;10.884;2022-09-01T00:08:29;16.00;99.90
24992;DHT22;13014;48.356;10.884;2022-09-01T00:09:01;15.90;99.90
24992;DHT22;13014;48.356;10.884;2022-09-01T00:09:33;15.90;99.90
24992;DHT22;13014;48.356;10.884;2022-09-01T00:10:04;15.90;99.90
24992;DHT22;13014;48.356;10.884;2022-09-01T00:10:36;15.90;99.90
24992;DHT22;13014;48.356;10.884;2022-09-01T00:11:06;15.90;99.90
24992;DHT22;13014;48.356;10.884;2022-09-01T00:11:38;15.90;99.90
24992;DHT22;13014;48.356;10.884;2022-09-01T00:12:09;15.90;99.90
24992;DHT22;13014;48.356;10.884;2022-09-01T00:12:39;16.00;99.90
24992;DHT22;13014;48.356;10.884;2022-09-01T00:13:10;15.90;99.90
24992;DHT22;13014;48.356;10.884;2022-09-01T00:13:40;16.00;99.90
24992;DHT22;13014;48.356;10.884;2022-09-01T00:14:11;15.90;99.90
24992;DHT22;13014;48.356;10.884;2022-09-01T00:14:42;16.00;99.90
24992;DHT22;13014;48.356;10.884;2022-09-01T00:15:13;16.00;99.90
24992;DHT22;13014;48.356;10.884;2022-09-01T00:15:44;16.00;99.90
24992;DHT22;13014;48.356;10.884;2022-09-01T00:16:14;16.00;99.90
24992;DHT22;13014;48.356;10.884;2022-09-01T00:16:46;16.00;99.90
24992;DHT22;13014;48.356;10.884;2022-09-01T00:17:16;16.00;99.90
24992;DHT22;13014;48.356;10.884;2022-09-01T00:17:47;16.00;99.90
24992;DHT22;13014;48.356;10.884;2022-09-01T00:18:18;16.00;99.90
24992;DHT22;13014;48.356;10.884;2022-09-01T00:18:49;16.00;99.90
24992;DHT22;13014;48.356;10.884;2022-09-01T00:19:21;16.00;99.90
24992;DHT22;13014;48.356;10.884;2022-09-01T00:19:52;16.00;99.90
24992;DHT22;13014;48.356;10.884;2022-09-01T00:20:23;16.00;99.90
24992;DHT22;13014;48.356;10.884;2022-09-01T00:20:53;16.00;99.90
24992;DHT22;13014;48.356;10.884;2022-09-01T00:21:34;16.00;99.90
24992;DHT22;13014;48.356;10.884;2022-09-01T00:22:05;16.00;99.90
24992;DHT22;13014;48.356;10.884;2022-09-01T00:22:36;16.00;99.90
24992;DHT22;13014;48.356;10.884;2022-09-01T00:23:06;16.00;99.90
24992;DHT22;13014;48.356;10.884;2022-09-01T00:23:37;16.00;99.90
24992;DHT22;13014;48.356;10.884;2022-09-01T00:24:09;16.00;99.90
24992;DHT22;13014;48.356;10.884;2022-09-01T00:24:40;16.00;99.90
24992;DHT22;13014;48.356;10.884;2022-09-01T00:25:10;16.00;99.90
24992;DHT22;13014;48.356;10.884;2022-09-01T00:25:41;16.10;99.90
24992;DHT22;13014;48.356;10.884;2022-09-01T00:26:12;16.10;99.90
24992;DHT22;13014;48.356;10.884;2022-09-01T00:26:42;16.10;99.90
24992;DHT22;13014;48.356;10.884;2022-09-01T00:27:13;16.10;99.90
24992;DHT22;13014;48.356;10.884;2022-09-01T00:27:44;16.10;99.90
24992;DHT22;13014;48.356;10.884;2022-09-01T00:28:15;16.10;99.90
24992;DHT22;13014;48.356;10.884;2022-09-01T00:28:45;16.10;99.90
24992;DHT22;13014;48.356;10.884;2022-09-01T00:29:16;16.10;99.90
24992;DHT22;13014;48.356;10.884;2022-09-01T00:29:46;16.10;99.90
24992;DHT22;13014;48.356;10.884;2022-09-01T00:30:17;16.10;99.90
24992;DHT22;13014;48.356;10.884;2022-09-01T00:30:48;16.10;99.90
24992;DHT22;13014;48.356;10.884;2022-09-01T00:31:19;16.00;99.90
24992;DHT22;13014;48.356;10.884;2022-09-01T00:31:50;16.00;99.90
24992;DHT22;13014;48.356;10.884;2022-09-01T00:32:21;16.00;99.90
24992;DHT22;13014;48.356;10.884;2022-09-01T00:32:51;16.00;99.90
24992;DHT22;13014;48.356;10.884;2022-09-01T00:33:22;16.00;99.90
24992;DHT22;13014;48.356;10.884;2022-09-01T00:33:53;16.00;99.90
24992;DHT22;13014;48.356;10.884;2022-09-01T00:34:23;16.00;99.90
24992;DHT22;13014;48.356;10.884;2022-09-01T00:34:54;16.00;99.90
24992;DHT22;13014;48.356;10.884;2022-09-01T00:35:24;16.00;99.90
24992;DHT22;13014;48.356;10.884;2022-09-01T00:35:55;16.10;99.90
24992;DHT22;13014;48.356;10.884;2022-09-01T00:36:26;16.10;99.90
24992;DHT22;13014;48.356;10.884;2022-09-01T00:36:56;16.10;99.90
24992;DHT22;13014;48.356;10.884;2022-09-01T00:37:27;16.10;99.90
24992;DHT22;13014;48.356;10.884;2022-09-01T00:37:57;16.10;99.90
24992;DHT22;13014;48.356;10.884;2022-09-01T00:38:28;16.10;99.90
24992;DHT22;13014;48.356;10.884;2022-09-01T00:38:58;16.00;99.90
24992;DHT22;13014;48.356;10.884;2022-09-01T00:39:29;16.10;99.90
24992;DHT22;13014;48.356;10.884;2022-09-01T00:40:00;16.10;99.90
24992;DHT22;13014;48.356;10.884;2022-09-01T00:40:30;16.00;99.90
24992;DHT22;13014;48.356;10.884;2022-09-01T00:41:01;16.10;99.90
24992;DHT22;13014;48.356;10.884;2022-09-01T00:41:33;16.00;99.90
24992;DHT22;13014;48.356;10.884;2022-09-01T00:42:04;16.00;99.90
24992;DHT22;13014;48.356;10.884;2022-09-01T00:42:35;16.10;99.90
24992;DHT22;13014;48.356;10.884;2022-09-01T00:43:22;16.10;99.90
24992;DHT22;13014;48.356;10.884;2022-09-01T00:43:57;16.00;99.90
24992;DHT22;13014;48.356;10.884;2022-09-01T00:44:28;16.00;99.90
24992;DHT22;13014;48.356;10.884;2022-09-01T00:44:59;16.00;99.90
24992;DHT22;13014;48.356;10.884;2022-09-01T00:45:29;16.00;99.90
24992;DHT22;13014;48.356;10.884;2022-09-01T00:46:00;16.00;99.90
24992;DHT22;13014;48.356;10.884;2022-09-01T00:46:32;16.00;99.90
24992;DHT22;13014;48.356;10.884;2022-09-01T00:47:03;16.00;99.90
24992;DHT22;13014;48.356;10.884;2022-09-01T00:47:36;15.90;99.90
24992;DHT22;13014;48.356;10.884;2022-09-01T00:48:07;15.90;99.90
24992;DHT22;13014;48.356;10.884;2022-09-01T00:48:38;16.00;99.90
24992;DHT22;13014;48.356;10.884;2022-09-01T00:49:13;15.90;99.90
24992;DHT22;13014;48.356;10.884;2022-09-01T00:49:46;15.90;99.90
24992;DHT22;13014;48.356;10.884;2022-09-01T00:50:17;15.90;99.90
24992;DHT22;13014;48.356;10.884;2022-09-01T00:50:48;15.90;99.90
24992;DHT22;13014;48.356;10.884;2022-09-01T00:51:18;15.90;99.90
24992;DHT22;13014;48.356;10.884;2022-09-01T00:51:50;15.90;99.90
24992;DHT22;13014;48.356;10.884;2022-09-01T00:52:26;15.90;99.90
24992;DHT22;13014;48.356;10.884;2022-09-01T00:52:58;15.90;99.90
24992;DHT22;13014;48.356;10.884;2022-09-01T00:53:30;15.90;99.90
24992;DHT22;13014;48.356;10.884;2022-09-01T00:54:01;15.80;99.90
24992;DHT22;13014;48.356;10.884;2022-09-01T00:54:33;15.90;99.90
24992;DHT22;13014;48.356;10.884;2022-09-01T00:55:27;15.90;99.90
24992;DHT22;13014;48.356;10.884;2022-09-01T00:55:56;15.90;99.90
24992;DHT22;13014;48.356;10.884;2022-09-01T00:56:27;15.80;99.90
24992;DHT22;13014;48.356;10.884;2022-09-01T00:56:59;15.80;99.90
24992;DHT22;13014;48.356;10.884;2022-09-01T00:57:29;15.80;99.90
24992;DHT22;13014;48.356;10.884;2022-09-01T00:58:00;15.80;99.90
24992;DHT22;13014;48.356;10.884;2022-09-01T00:58:33;15.80;99.90
24992;DHT22;13014;48.356;10.884;2022-09-01T00:59:04;15.80;99.90
24992;DHT22;13014;48.356;10.884;2022-09-01T00:59:37;15.80;99.90
24992;DHT22;13014;48.356;10.884;2022-09-01T01:00:19;15.80;99.90
24992;DHT22;13014;48.356;10.884;2022-09-01T01:00:50;15.90;99.90
24992;DHT22;13014;48.356;10.884;2022-09-01T01:01:21;15.80;99.90
24992;DHT22;13014;48.356;10.884;2022-09-01T01:01:53;15.80;99.90
24992;DHT22;13014;48.356;10.884;2022-09-01T01:02:24;15.80;99.90
24992;DHT22;13014;48.356;10.884;2022-09-01T01:02:55;15.80;99.90
24992;DHT22;13014;48.356;10.884;2022-09-01T01:03:26;15.80;99.90
24992;DHT22;13014;48.356;10.884;2022-09-01T01:03:59;15.80;99.90
24992;DHT22;13014;48.356;10.884;2022-09-01T01:04:31;15.80;99.90
24992;DHT22;13014;48.356;10.884;2022-09-01T01:05:02;15.80;99.90
24992;DHT22;13014;48.356;10.884;2022-09-01T01:05:33;15.80;99.90
24992;DHT22;13014;48.356;10.884;2022-09-01T01:06:06;15.80;99.90
24992;DHT22;13014;48.356;10.884;2022-09-01T01:06:37;15.80;99.90
24992;DHT22;13014;48.356;10.884;2022-09-01T01:07:08;15.80;99.90
24992;DHT22;13014;48.356;10.884;2022-09-01T01:07:40;15.80;99.90
24992;DHT22;13014;48.356;10.884;2022-09-01T01:08:13;15.80;99.90
24992;DHT22;13014;48.356;10.884;2022-09-01T01:08:48;15.80;99.90
24992;DHT22;13014;48.356;10.884;2022-09-01T01:09:32;15.80;99.90
24992;DHT22;13014;48.356;10.884;2022-09-01T01:10:05;15.80;99.90
24992;DHT22;13014;48.356;10.884;2022-09-01T01:10:37;15.80;99.90
24992;DHT22;13014;48.356;10.884;2022-09-01T01:11:10;15.80;99.90
24992;DHT22;13014;48.356;10.884;2022-09-01T01:11:47;15.90;99.90
24992;DHT22;13014;48.356;10.884;2022-09-01T01:12:17;15.90;99.90
24992;DHT22;13014;48.356;10.884;2022-09-01T01:12:48;15.90;99.90
24992;DHT22;13014;48.356;10.884;2022-09-01T01:13:20;15.90;99.90
24992;DHT22;13014;48.356;10.884;2022-09-01T01:14:12;15.90;99.90
24992;DHT22;13014;48.356;10.884;2022-09-01T01:14:45;15.90;99.90
24992;DHT22;13014;48.356;10.884;2022-09-01T01:15:19;15.90;99.90
24992;DHT22;13014;48.356;10.884;2022-09-01T01:15:50;15.90;99.90
24992;DHT22;13014;48.356;10.884;2022-09-01T01:16:22;15.90;99.90
24992;DHT22;13014;48.356;10.884;2022-09-01T01:16:53;15.90;99.90
24992;DHT22;13014;48.356;10.884;2022-09-01T01:17:24;15.90;99.90
24992;DHT22;13014;48.356;10.884;2022-09-01T01:17:55;15.90;99.90
24992;DHT22;13014;48.356;10.884;2022-09-01T01:18:25;15.90;99.90
24992;DHT22;13014;48.356;10.884;2022-09-01T01:18:56;15.90;99.90
24992;DHT22;13014;48.356;10.884;2022-09-01T01:20:28;15.90;99.90
24992;DHT22;13014;48.356;10.884;2022-09-01T01:21:28;15.90;99.90
24992;DHT22;13014;48.356;10.884;2022-09-01T01:22:26;15.90;99.90
24992;DHT22;13014;48.356;10.884;2022-09-01T01:23:53;15.90;99.90
24992;DHT22;13014;48.356;10.884;2022-09-01T01:24:27;15.90;99.90
24992;DHT22;13014;48.356;10.884;2022-09-01T01:24:58;15.90;99.90
24992;DHT22;13014;48.356;10.884;2022-09-01T01:25:32;15.90;99.90
24992;DHT22;13014;48.356;10.884;2022-09-01T01:26:03;15.90;99.90
24992;DHT22;13014;48.356;10.884;2022-09-01T01:26:34;15.90;99.90
24992;DHT22;13014;48.356;10.884;2022-09-01T01:27:06;15.90;99.90
24992;DHT22;13014;48.356;10.884;2022-09-01T01:27:37;16.00;99.90
24992;DHT22;13014;48.356;10.884;2022-09-01T01:28:14;16.00;99.90
24992;DHT22;13014;48.356;10.884;2022-09-01T01:28:45;16.00;99.90
24992;DHT22;13014;48.356;10.884;2022-09-01T01:29:16;16.00;99.90
24992;DHT22;13014;48.356;10.884;2022-09-01T01:29:48;15.90;99.90
24992;DHT22;13014;48.356;10.884;2022-09-01T01:30:19;15.90;99.90
24992;DHT22;13014;48.356;10.884;2022-09-01T01:30:51;15.90;99.90
24992;DHT22;13014;48.356;10.884;2022-09-01T01:31:22;15.90;99.90
24992;DHT22;13014;48.356;10.884;2022-09-01T01:31:54;15.90;99.90
24992;DHT22;13014;48.356;10.884;2022-09-01T01:32:24;15.80;99.90
24992;DHT22;13014;48.356;10.884;2022-09-01T01:32:55;15.80;99.90
24992;DHT22;13014;48.356;10.884;2022-09-01T01:33:31;15.90;99.90
24992;DHT22;13014;48.356;10.884;2022-09-01T01:34:03;15.80;99.90
24992;DHT22;13014;48.356;10.884;2022-09-01T01:34:37;15.80;99.90
24992;DHT22;13014;48.356;10.884;2022-09-01T01:35:15;15.90;99.90
24992;DHT22;13014;48.356;10.884;2022-09-01T01:35:46;15.80;99.90
24992;DHT22;13014;48.356;10.884;2022-09-01T01:36:27;15.80;99.90
24992;DHT22;13014;48.356;10.884;2022-09-01T01:37:01;15.80;99.90
24992;DHT22;13014;48.356;10.884;2022-09-01T01:37:35;15.80;99.90
24992;DHT22;13014;48.356;10.884;2022-09-01T01:38:05;15.80;99.90
24992;DHT22;13014;48.356;10.884;2022-09-01T01:38:40;15.80;99.90
24992;DHT22;13014;48.356;10.884;2022-09-01T01:39:15;15.80;99.90
24992;DHT22;13014;48.356;10.884;2022-09-01T01:39:46;15.80;99.90
24992;DHT22;13014;48.356;10.884;2022-09-01T01:40:18;15.90;99.90
24992;DHT22;13014;48.356;10.884;2022-09-01T01:40:50;15.90;99.90
24992;DHT22;13014;48.356;10.884;2022-09-01T01:41:23;15.80;99.90
24992;DHT22;13014;48.356;10.884;2022-09-01T01:41:54;15.80;99.90
24992;DHT22;13014;48.356;10.884;2022-09-01T01:42:25;15.80;99.90
24992;DHT22;13014;48.356;10.884;2022-09-01T01:42:56;15.80;99.90
24992;DHT22;13014;48.356;10.884;2022-09-01T01:43:27;15.90;99.90
24992;DHT22;13014;48.356;10.884;2022-09-01T01:43:59;15.90;99.90
24992;DHT22;13014;48.356;10.884;2022-09-01T01:44:34;15.90;99.90
24992;DHT22;13014;48.356;10.884;2022-09-01T01:45:06;15.90;99.90
24992;DHT22;13014;48.356;10.884;2022-09-01T01:45:37;15.90;99.90
24992;DHT22;13014;48.356;10.884;2022-09-01T01:46:08;15.90;99.90
24992;DHT22;13014;48.356;10.884;2022-09-01T01:46:44;15.90;99.90
24992;DHT22;13014;48.356;10.884;2022-09-01T01:47:15;15.90;99.90
24992;DHT22;13014;48.356;10.884;2022-09-01T01:47:47;15.90;99.90
24992;DHT22;13014;48.356;10.884;2022-09-01T01:48:25;15.90;99.90
24992;DHT22;13014;48.356;10.884;2022-09-01T01:48:57;15.90;99.90
24992;DHT22;13014;48.356;10.884;2022-09-01T01:49:29;15.90;99.90
24992;DHT22;13014;48.356;10.884;2022-09-01T01:50:00;15.80;99.90
24992;DHT22;13014;48.356;10.884;2022-09-01T01:50:33;15.90;99.90
24992;DHT22;13014;48.356;10.884;2022-09-01T01:51:04;15.90;99.90
24992;DHT22;13014;48.356;10.884;2022-09-01T01:51:35;15.90;99.90
24992;DHT22;13014;48.356;10.884;2022-09-01T01:52:06;15.80;99.90
24992;DHT22;13014;48.356;10.884;2022-09-01T01:52:37;15.80;99.90
24992;DHT22;13014;48.356;10.884;2022-09-01T01:53:07;15.90;99.90
24992;DHT22;13014;48.356;10.884;2022-09-01T01:53:38;15.80;99.90
24992;DHT22;13014;48.356;10.884;2022-09-01T01:54:09;15.80;99.90
24992;DHT22;13014;48.356;10.884;2022-09-01T01:54:40;15.80;99.90
24992;DHT22;13014;48.356;10.884;2022-09-01T01:55:10;15.80;99.90
24992;DHT22;13014;48.356;10.884;2022-09-01T01:55:41;15.80;99.90
24992;DHT22;13014;48.356;10.884;2022-09-01T01:56:13;15.80;99.90
24992;DHT22;13014;48.356;10.884;2022-09-01T01:56:43;15.80;99.90
24992;DHT22;13014;48.356;10.884;2022-09-01T01:57:14;15.80;99.90
24992;DHT22;13014;48.356;10.884;2022-09-01T01:57:47;15.80;99.90
24992;DHT22;13014;48.356;10.884;2022-09-01T01:58:20;15.80;99.90
24992;DHT22;13014;48.356;10.884;2022-09-01T01:58:52;15.80;99.90
24992;DHT22;13014;48.356;10.884;2022-09-01T01:59:24;15.70;99.90
24992;DHT22;13014;48.356;10.884;2022-09-01T01:59:55;15.80;99.90
24992;DHT22;13014;48.356;10.884;2022-09-01T02:00:27;15.70;99.90
24992;DHT22;13014;48.356;10.884;2022-09-01T02:00:58;15.70;99.90
24992;DHT22;13014;48.356;10.884;2022-09-01T02:01:29;15.70;99.90
24992;DHT22;13014;48.356;10.884;2022-09-01T02:02:01;15.70;99.90
24992;DHT22;13014;48.356;10.884;2022-09-01T02:02:32;15.70;99.90
24992;DHT22;13014;48.356;10.884;2022-09-01T02:03:04;15.70;99.90
24992;DHT22;13014;48.356;10.884;2022-09-01T02:03:37;15.70;99.90
24992;DHT22;13014;48.356;10.884;2022-09-01T02:08:28;15.60;99.90
24992;DHT22;13014;48.356;10.884;2022-09-01T02:08:59;15.50;99.90
24992;DHT22;13014;48.356;10.884;2022-09-01T02:09:32;15.50;99.90
24992;DHT22;13014;48.356;10.884;2022-09-01T02:10:02;15.50;99.90
24992;DHT22;13014;48.356;10.884;2022-09-01T02:10:34;15.50;99.90
24992;DHT22;13014;48.356;10.884;2022-09-01T02:11:06;15.50;99.90
24992;DHT22;13014;48.356;10.884;2022-09-01T02:11:36;15.50;99.90
24992;DHT22;13014;48.356;10.884;2022-09-01T02:12:07;15.40;99.90
24992;DHT22;13014;48.356;10.884;2022-09-01T02:12:38;15.40;99.90
24992;DHT22;13014;48.356;10.884;2022-09-01T02:13:10;15.40;99.90
24992;DHT22;13014;48.356;10.884;2022-09-01T02:13:45;15.50;99.90
24992;DHT22;13014;48.356;10.884;2022-09-01T02:14:16;15.50;99.90
24992;DHT22;13014;48.356;10.884;2022-09-01T02:14:51;15.50;99.90
24992;DHT22;13014;48.356;10.884;2022-09-01T02:15:24;15.50;99.90
24992;DHT22;13014;48.356;10.884;2022-09-01T02:15:55;15.50;99.90
24992;DHT22;13014;48.356;10.884;2022-09-01T02:16:27;15.40;99.90
24992;DHT22;13014;48.356;10.884;2022-09-01T02:16:58;15.40;99.90
24992;DHT22;13014;48.356;10.884;2022-09-01T02:17:28;15.50;99.90
24992;DHT22;13014;48.356;10.884;2022-09-01T02:17:59;15.50;99.90
24992;DHT22;13014;48.356;10.884;2022-09-01T02:18:34;15.50;99.90
24992;DHT22;13014;48.356;10.884;2022-09-01T02:19:06;15.50;99.90
24992;DHT22;13014;48.356;10.884;2022-09-01T02:19:38;15.50;99.90
24992;DHT22;13014;48.356;10.884;2022-09-01T02:20:11;15.40;99.90
24992;DHT22;13014;48.356;10.884;2022-09-01T02:20:47;15.50;99.90
24992;DHT22;13014;48.356;10.884;2022-09-01T02:21:19;15.50;99.90
24992;DHT22;13014;48.356;10.884;2022-09-01T02:21:50;15.50;99.90
24992;DHT22;13014;48.356;10.884;2022-09-01T02:22:25;15.50;99.90
24992;DHT22;13014;48.356;10.884;2022-09-01T02:22:55;15.50;99.90
24992;DHT22;13014;48.356;10.884;2022-09-01T02:23:26;15.50;99.90
24992;DHT22;13014;48.356;10.884;2022-09-01T05:55:35;16.20;99.90
24992;DHT22;13014;48.356;10.884;2022-09-01T05:56:07;16.30;99.90
24992;DHT22;13014;48.356;10.884;2022-09-01T05:56:38;16.40;99.90
24992;DHT22;13014;48.356;10.884;2022-09-01T05:57:11;16.40;99.90
24992;DHT22;13014;48.356;10.884;2022-09-01T05:57:43;16.40;99.90
24992;DHT22;13014;48.356;10.884;2022-09-01T05:58:17;16.40;98.40
24992;DHT22;13014;48.356;10.884;2022-09-01T05:58:49;16.50;99.90
24992;DHT22;13014;48.356;10.884;2022-09-01T05:59:19;16.40;94.90
24992;DHT22;13014;48.356;10.884;2022-09-01T05:59:50;16.40;90.70
24992;DHT22;13014;48.356;10.884;2022-09-01T06:00:22;16.50;92.60
24992;DHT22;13014;48.356;10.884;2022-09-01T06:00:54;16.40;80.30
24992;DHT22;13014;48.356;10.884;2022-09-01T06:01:28;16.50;77.60
24992;DHT22;13014;48.356;10.884;2022-09-01T06:02:02;16.50;76.50
24992;DHT22;13014;48.356;10.884;2022-09-01T06:02:33;16.40;63.50
24992;DHT22;13014;48.356;10.884;2022-09-01T06:03:04;16.40;70.20
24992;DHT22;13014;48.356;10.884;2022-09-01T06:03:36;16.40;99.90
24992;DHT22;13014;48.356;10.884;2022-09-01T06:04:08;16.30;92.50
24992;DHT22;13014;48.356;10.884;2022-09-01T06:04:39;16.40;99.90
24992;DHT22;13014;48.356;10.884;2022-09-01T06:05:10;16.40;99.90
24992;DHT22;13014;48.356;10.884;2022-09-01T06:05:44;16.40;99.90
24992;DHT22;13014;48.356;10.884;2022-09-01T06:06:23;16.40;99.90
24992;DHT22;13014;48.356;10.884;2022-09-01T06:06:54;16.50;99.90
24992;DHT22;13014;48.356;10.884;2022-09-01T06:07:26;16.50;99.90
24992;DHT22;13014;48.356;10.884;2022-09-01T06:07:57;16.50;99.90
24992;DHT22;13014;48.356;10.884;2022-09-01T06:08:28;16.50;97.40
24992;DHT22;13014;48.356;10.884;2022-09-01T06:08:58;16.50;94.30
24992;DHT22;13014;48.356;10.884;2022-09-01T06:09:29;16.60;99.90
24992;DHT22;13014;48.356;10.884;2022-09-01T06:10:00;16.60;99.90
24992;DHT22;13014;48.356;10.884;2022-09-01T06:10:31;16.60;98.10
24992;DHT22;13014;48.356;10.884;2022-09-01T06:11:03;16.60;99.90
24992;DHT22;13014;48.356;10.884;2022-09-01T06:11:41;16.70;99.90
24992;DHT22;13014;48.356;10.884;2022-09-01T06:12:12;16.70;99.90
24992;DHT22;13014;48.356;10.884;2022-09-01T06:12:47;16.70;99.90
24992;DHT22;13014;48.356;10.884;2022-09-01T06:13:19;16.80;99.90
24992;DHT22;13014;48.356;10.884;2022-09-01T06:13:51;16.80;98.60
24992;DHT22;13014;48.356;10.884;2022-09-01T06:14:24;16.80;72.90
24992;DHT22;13014;48.356;10.884;2022-09-01T06:14:55;16.80;67.10
24992;DHT22;13014;48.356;10.884;2022-09-01T06:15:30;16.80;50.80
24992;DHT22;13014;48.356;10.884;2022-09-01T06:16:01;16.90;99.90
24992;DHT22;13014;48.356;10.884;2022-09-01T06:16:32;17.00;78.10
24992;DHT22;13014;48.356;10.884;2022-09-01T06:17:02;17.00;71.20
24992;DHT22;13014;48.356;10.884;2022-09-01T06:17:33;16.90;30.80
24992;DHT22;13014;48.356;10.884;2022-09-01T06:18:04;17.00;99.90
24992;DHT22;13014;48.356;10.884;2022-09-01T06:18:37;17.10;55.90
24992;DHT22;13014;48.356;10.884;2022-09-01T06:19:07;17.00;29.60
24992;DHT22;13014;48.356;10.884;2022-09-01T06:19:39;17.00;36.20
24992;DHT22;13014;48.356;10.884;2022-09-01T06:20:10;17.00;35.70
24992;DHT22;13014;48.356;10.884;2022-09-01T06:20:41;17.10;29.00
24992;DHT22;13014;48.356;10.884;2022-09-01T06:21:12;17.10;37.50
24992;DHT22;13014;48.356;10.884;2022-09-01T06:21:46;17.10;34.70
24992;DHT22;13014;48.356;10.884;2022-09-01T06:22:18;17.20;73.10
24992;DHT22;13014;48.356;10.884;2022-09-01T06:22:49;17.10;10.90
24992;DHT22;13014;48.356;10.884;2022-09-01T06:23:22;17.10;21.10
24992;DHT22;13014;48.356;10.884;2022-09-01T06:23:53;17.10;12.20
24992;DHT22;13014;48.356;10.884;2022-09-01T06:24:24;17.10;26.20
24992;DHT22;13014;48.356;10.884;2022-09-01T06:24:55;17.10;20.80
24992;DHT22;13014;48.356;10.884;2022-09-01T06:25:26;17.10;20.80
24992;DHT22;13014;48.356;10.884;2022-09-01T06:25:59;17.10;69.90
24992;DHT22;13014;48.356;10.884;2022-09-01T06:26:32;17.10;25.50
24992;DHT22;13014;48.356;10.884;2022-09-01T06:27:04;17.10;16.90
24992;DHT22;13014;48.356;10.884;2022-09-01T06:27:38;17.10;99.90
24992;DHT22;13014;48.356;10.884;2022-09-01T06:28:14;17.10;15.10
24992;DHT22;13014;48.356;10.884;2022-09-01T06:28:45;17.10;5.10
24992;DHT22;13014;48.356;10.884;2022-09-01T06:29:15;17.00;6.20
24992;DHT22;13014;48.356;10.884;2022-09-01T06:29:46;17.00;55.60
24992;DHT22;13014;48.356;10.884;2022-09-01T06:30:23;17.00;19.20
24992;DHT22;13014;48.356;10.884;2022-09-01T06:30:55;17.00;13.40
24992;DHT22;13014;48.356;10.884;2022-09-01T06:31:27;16.90;25.80
24992;DHT22;13014;48.356;10.884;2022-09-01T06:31:59;16.90;32.70
24992;DHT22;13014;48.356;10.884;2022-09-01T06:32:31;16.90;28.60
24992;DHT22;13014;48.356;10.884;2022-09-01T06:33:03;16.90;26.40
24992;DHT22;13014;48.356;10.884;2022-09-01T06:33:38;16.90;18.70
24992;DHT22;13014;48.356;10.884;2022-09-01T06:34:10;16.90;13.40
24992;DHT22;13014;48.356;10.884;2022-09-01T06:34:43;16.90;90.80
24992;DHT22;13014;48.356;10.884;2022-09-01T06:35:14;16.80;31.40
24992;DHT22;13014;48.356;10.884;2022-09-01T06:35:48;16.80;47.40
24992;DHT22;13014;48.356;10.884;2022-09-01T06:36:21;16.80;92.20
24992;DHT22;13014;48.356;10.884;2022-09-01T06:36:53;16.80;23.40
24992;DHT22;13014;48.356;10.884;2022-09-01T06:37:23;16.70;42.30
24992;DHT22;13014;48.356;10.884;2022-09-01T06:37:55;16.80;99.90
24992;DHT22;13014;48.356;10.884;2022-09-01T06:38:26;16.90;38.50
24992;DHT22;13014;48.356;10.884;2022-09-01T06:38:57;16.90;12.00
24992;DHT22;13014;48.356;10.884;2022-09-01T06:39:30;16.80;12.10
24992;DHT22;13014;48.356;10.884;2022-09-01T06:40:01;16.90;14.50
24992;DHT22;13014;48.356;10.884;2022-09-01T06:40:32;16.90;21.20
24992;DHT22;13014;48.356;10.884;2022-09-01T06:41:04;16.90;17.10
24992;DHT22;13014;48.356;10.884;2022-09-01T06:41:37;16.90;23.50
24992;DHT22;13014;48.356;10.884;2022-09-01T06:42:08;16.90;32.50
24992;DHT22;13014;48.356;10.884;2022-09-01T06:42:43;17.00;12.90
24992;DHT22;13014;48.356;10.884;2022-09-01T06:43:14;17.00;5.40
24992;DHT22;13014;48.356;10.884;2022-09-01T06:43:46;16.90;7.80
24992;DHT22;13014;48.356;10.884;2022-09-01T06:44:17;16.90;12.30
24992;DHT22;13014;48.356;10.884;2022-09-01T06:44:54;16.80;15.50
24992;DHT22;13014;48.356;10.884;2022-09-01T06:45:25;16.90;14.50
24992;DHT22;13014;48.356;10.884;2022-09-01T06:45:59;16.80;12.60
24992;DHT22;13014;48.356;10.884;2022-09-01T06:46:30;16.70;27.40
24992;DHT22;13014;48.356;10.884;2022-09-01T06:47:01;16.70;37.80
24992;DHT22;13014;48.356;10.884;2022-09-01T06:47:31;16.80;20.70
24992;DHT22;13014;48.356;10.884;2022-09-01T06:48:03;16.70;19.00
24992;DHT22;13014;48.356;10.884;2022-09-01T06:48:37;16.70;13.50
24992;DHT22;13014;48.356;10.884;2022-09-01T06:49:14;16.70;17.60
24992;DHT22;13014;48.356;10.884;2022-09-01T06:49:45;16.70;21.20
24992;DHT22;13014;48.356;10.884;2022-09-01T06:50:16;16.70;27.50
24992;DHT22;13014;48.356;10.884;2022-09-01T06:50:48;16.60;23.10
24992;DHT22;13014;48.356;10.884;2022-09-01T06:51:20;16.70;36.90
24992;DHT22;13014;48.356;10.884;2022-09-01T06:51:51;16.60;40.70
24992;DHT22;13014;48.356;10.884;2022-09-01T06:52:22;16.70;49.20
24992;DHT22;13014;48.356;10.884;2022-09-01T06:52:52;16.60;25.60
24992;DHT22;13014;48.356;10.884;2022-09-01T06:53:30;16.60;32.10
24992;DHT22;13014;48.356;10.884;2022-09-01T06:54:03;16.60;76.60
24992;DHT22;13014;48.356;10.884;2022-09-01T06:54:34;16.70;40.90
24992;DHT22;13014;48.356;10.884;2022-09-01T06:55:11;16.70;38.70
24992;DHT22;13014;48.356;10.884;2022-09-01T06:55:42;16.70;34.70
24992;DHT22;13014;48.356;10.884;2022-09-01T06:56:16;16.60;25.70
24992;DHT22;13014;48.356;10.884;2022-09-01T06:56:48;16.70;39.80
24992;DHT22;13014;48.356;10.884;2022-09-01T06:57:18;16.60;29.80
24992;DHT22;13014;48.356;10.884;2022-09-01T06:57:50;16.60;34.60
24992;DHT22;13014;48.356;10.884;2022-09-01T06:58:23;16.60;56.70